Time;durP1;ratioP1;P1;durP2;ratioP2;P2;SDS_P1;SDS_P2;PMS_P1;PMS_P2;Temp;Humidity;BMP_temperature;BMP_pressure;BME280_temperature;BME280_humidity;BME280_pressure;Samples;Min_cycle;Max_cycle;Signal;HPM_P1;HPM_P2
2022/06/13 00:00:32;;;;;;;;;;;11.90;1.00;;;;;;4790263;30;20336;-73
2022/06/13 00:03:04;;;;;;;;;;;11.90;1.00;;;;;;4781200;30;19914;-73
2022/06/13 00:05:36;;;;;;;;;;;11.90;1.00;;;;;;4787395;30;19921;-73
2022/06/13 00:08:04;;;;;;;;;;;11.90;1.00;;;;;;4790152;29;20011;-73
2022/06/13 00:10:33;;;;;;;;;;;11.90;1.00;;;;;;4790030;30;19937;-73
2022/06/13 00:12:58;;;;;;;;;;;11.90;1.00;;;;;;4789875;30;19994;-73
2022/06/13 00:15:27;;;;;;;;;;;11.90;1.00;;;;;;4789933;30;19944;-73
2022/06/13 00:17:52;;;;;;;;;;;11.90;1.00;;;;;;4789905;30;19925;-72
2022/06/13 00:20:18;;;;;;;;;;;11.90;1.00;;;;;;4789898;30;19910;-73
2022/06/13 00:22:43;;;;;;;;;;;11.90;1.00;;;;;;4789881;30;19910;-72
2022/06/13 00:25:16;;;;;;;;;;;11.90;1.00;;;;;;4789778;30;20592;-72
2022/06/13 00:27:42;;;;;;;;;;;11.80;99.90;;;;;;4789750;30;19909;-73
2022/06/13 00:30:08;;;;;;;;;;;11.70;99.90;;;;;;4784731;30;19917;-72
2022/06/13 00:32:39;;;;;;;;;;;11.60;99.90;;;;;;4782747;30;19997;-72
2022/06/13 00:35:08;;;;;;;;;;;11.60;99.90;;;;;;4789828;30;19916;-72
2022/06/13 00:37:35;;;;;;;;;;;11.50;99.90;;;;;;4789642;30;19918;-72
2022/06/13 00:40:04;;;;;;;;;;;11.40;99.90;;;;;;4789505;30;19909;-72
2022/06/13 00:42:29;;;;;;;;;;;11.30;99.90;;;;;;4790115;30;19913;-72
2022/06/13 00:45:24;;;;;;;;;;;11.30;1.00;;;;;;4789440;30;19914;-73
2022/06/13 00:47:56;;;;;;;;;;;11.30;99.90;;;;;;4789508;30;19910;-73
2022/06/13 00:50:26;;;;;;;;;;;11.50;99.90;;;;;;4789627;30;19916;-73
2022/06/13 00:52:51;;;;;;;;;;;11.70;99.90;;;;;;4789437;30;19913;-73
2022/06/13 00:55:29;;;;;;;;;;;11.60;99.90;;;;;;4789129;30;20313;-73
2022/06/13 00:58:01;;;;;;;;;;;11.60;99.90;;;;;;4789585;30;20302;-72
2022/06/13 01:00:35;;;;;;;;;;;11.70;99.90;;;;;;4789261;30;19913;-73
2022/06/13 01:03:02;;;;;;;;;;;11.70;99.90;;;;;;4789163;29;19909;-72
2022/06/13 01:05:33;;;;;;;;;;;11.60;99.90;;;;;;4783947;30;19910;-73
2022/06/13 01:08:03;;;;;;;;;;;11.70;99.90;;;;;;4773874;30;19924;-72
2022/06/13 01:13:20;;;;;;;;;;;11.60;99.90;;;;;;4780888;30;20270;-73
2022/06/13 01:15:58;;;;;;;;;;;11.60;99.90;;;;;;4788976;30;19917;-72
2022/06/13 01:18:41;;;;;;;;;;;11.50;99.90;;;;;;4788858;30;20527;-72
2022/06/13 01:21:22;;;;;;;;;;;11.50;99.90;;;;;;4788765;30;20361;-73
2022/06/13 01:23:50;;;;;;;;;;;11.50;99.90;;;;;;4776060;30;19910;-72
2022/06/13 01:27:03;;;;;;;;;;;11.60;99.90;;;;;;4788644;30;19913;-73
2022/06/13 01:29:36;;;;;;;;;;;11.70;99.90;;;;;;4759046;30;19909;-73
2022/06/13 01:32:17;;;;;;;;;;;11.90;99.90;;;;;;4788623;30;19914;-72
2022/06/13 01:35:01;;;;;;;;;;;12.00;99.90;;;;;;4781516;30;19967;-73
2022/06/13 01:37:34;;;;;;;;;;;12.10;99.90;;;;;;4785450;30;20017;-73
2022/06/13 01:40:02;;;;;;;;;;;12.30;99.90;;;;;;4788452;30;19914;-72
2022/06/13 01:42:33;;;;;;;;;;;12.30;99.90;;;;;;4775761;30;20004;-73
2022/06/13 01:45:17;;;;;;;;;;;12.30;99.90;;;;;;4788445;30;20142;-73
2022/06/13 01:48:04;;;;;;;;;;;12.30;99.90;;;;;;4788460;30;19916;-72
2022/06/13 01:50:30;;;;;;;;;;;12.30;99.90;;;;;;4788345;30;19979;-73
2022/06/13 01:53:05;;;;;;;;;;;12.30;99.90;;;;;;4784912;30;19910;-73
2022/06/13 01:55:46;;;;;;;;;;;12.30;99.90;;;;;;4782124;30;19921;-73
2022/06/13 01:58:18;;;;;;;;;;;12.40;99.90;;;;;;4783905;30;19918;-73
2022/06/13 02:00:48;;;;;;;;;;;12.50;99.90;;;;;;4777415;30;19909;-72
2022/06/13 02:03:20;;;;;;;;;;;12.60;99.90;;;;;;4786751;30;19962;-73
2022/06/13 02:06:01;;;;;;;;;;;12.70;99.90;;;;;;4778063;30;19967;-73
2022/06/13 02:08:56;;;;;;;;;;;12.70;99.90;;;;;;4787510;30;19910;-73
2022/06/13 02:11:24;;;;;;;;;;;12.70;99.90;;;;;;4770572;30;19992;-73
2022/06/13 02:14:31;;;;;;;;;;;12.70;99.90;;;;;;4777108;30;20331;-73
2022/06/13 02:17:01;;;;;;;;;;;12.80;99.90;;;;;;4714706;30;19961;-73
2022/06/13 02:19:31;;;;;;;;;;;12.90;99.90;;;;;;4729968;30;19920;-73
2022/06/13 02:22:01;;;;;;;;;;;12.90;99.90;;;;;;4787913;30;20000;-73
2022/06/13 02:24:40;;;;;;;;;;;13.00;99.90;;;;;;4788340;30;19966;-73
2022/06/13 02:27:07;;;;;;;;;;;12.90;99.90;;;;;;4775199;30;20369;-73
2022/06/13 02:29:36;;;;;;;;;;;13.00;99.90;;;;;;4778784;30;19988;-73
2022/06/13 02:32:06;;;;;;;;;;;13.10;99.90;;;;;;4784533;30;19937;-73
2022/06/13 02:34:37;;;;;;;;;;;13.00;99.90;;;;;;4787754;30;19909;-73
2022/06/13 02:37:18;;;;;;;;;;;13.10;99.90;;;;;;4785956;30;19947;-73
2022/06/13 02:40:00;;;;;;;;;;;13.10;99.90;;;;;;4778687;30;20448;-73
2022/06/13 02:42:32;;;;;;;;;;;13.10;99.90;;;;;;4787385;30;20420;-73
2022/06/13 02:45:09;;;;;;;;;;;13.10;99.90;;;;;;4787751;30;19909;-73
2022/06/13 02:47:39;;;;;;;;;;;13.00;99.90;;;;;;4787518;30;20270;-73
2022/06/13 02:50:08;;;;;;;;;;;13.10;99.90;;;;;;4787553;30;19963;-73
2022/06/13 02:52:53;;;;;;;;;;;13.10;99.90;;;;;;4784737;30;19914;-73
2022/06/13 02:55:19;;;;;;;;;;;13.10;99.90;;;;;;4776379;30;20016;-73
2022/06/13 02:58:06;;;;;;;;;;;13.00;99.90;;;;;;4781978;30;20703;-73
2022/06/13 03:00:46;;;;;;;;;;;13.10;99.90;;;;;;4781271;30;20012;-73
2022/06/13 03:03:15;;;;;;;;;;;13.00;99.90;;;;;;4775900;30;19910;-73
2022/06/13 03:05:49;;;;;;;;;;;13.00;99.90;;;;;;4787466;30;20366;-73
2022/06/13 03:08:26;;;;;;;;;;;13.00;99.90;;;;;;4775535;30;19931;-73
2022/06/13 03:11:16;;;;;;;;;;;13.00;99.90;;;;;;4774802;30;19914;-73
2022/06/13 03:13:52;;;;;;;;;;;13.10;99.90;;;;;;4786491;30;19909;-73
2022/06/13 03:16:29;;;;;;;;;;;13.20;99.90;;;;;;4787108;30;19915;-73
2022/06/13 03:19:02;;;;;;;;;;;13.10;99.90;;;;;;4786155;30;19922;-73
2022/06/13 03:21:35;;;;;;;;;;;13.00;99.90;;;;;;4787056;30;20382;-73
2022/06/13 03:24:13;;;;;;;;;;;13.00;99.90;;;;;;4775246;30;19916;-73
2022/06/13 03:26:45;;;;;;;;;;;12.90;99.90;;;;;;4787484;29;19910;-73
2022/06/13 03:29:16;;;;;;;;;;;12.80;99.90;;;;;;4790823;30;19947;-73
2022/06/13 03:31:47;;;;;;;;;;;12.70;99.90;;;;;;4790858;30;19967;-73
2022/06/13 03:34:21;;;;;;;;;;;12.80;99.90;;;;;;4778561;30;19909;-73
2022/06/13 03:36:55;;;;;;;;;;;12.80;99.90;;;;;;4790384;30;19918;-73
2022/06/13 03:39:21;;;;;;;;;;;12.80;99.90;;;;;;4778785;30;19909;-73
2022/06/13 03:42:03;;;;;;;;;;;12.80;99.90;;;;;;4790372;30;20279;-73
2022/06/13 03:44:42;;;;;;;;;;;12.80;99.90;;;;;;4786851;30;19913;-73
2022/06/13 03:47:10;;;;;;;;;;;12.90;99.90;;;;;;4783520;30;19966;-73
2022/06/13 03:49:39;;;;;;;;;;;13.00;99.90;;;;;;4778934;30;19916;-73
2022/06/13 03:52:09;;;;;;;;;;;13.00;99.90;;;;;;4790352;30;19916;-73
2022/06/13 03:54:50;;;;;;;;;;;13.10;99.90;;;;;;4789873;30;19986;-73
2022/06/13 03:57:22;;;;;;;;;;;13.50;99.90;;;;;;4789995;30;19964;-73
2022/06/13 03:59:53;;;;;;;;;;;13.70;99.90;;;;;;4790233;30;19909;-73
2022/06/13 04:02:31;;;;;;;;;;;13.70;99.90;;;;;;4777867;30;19910;-73
2022/06/13 04:04:56;;;;;;;;;;;13.70;99.90;;;;;;4778897;30;19909;-73
2022/06/13 04:07:23;;;;;;;;;;;13.70;99.90;;;;;;4789915;30;19916;-73
2022/06/13 04:10:01;;;;;;;;;;;13.50;99.90;;;;;;4790060;30;19982;-73
2022/06/13 04:12:34;;;;;;;;;;;13.50;99.90;;;;;;4790544;30;19964;-73
2022/06/13 04:15:20;;;;;;;;;;;13.40;99.90;;;;;;4774152;30;19913;-73
2022/06/13 04:18:04;;;;;;;;;;;13.40;99.90;;;;;;4779825;30;20375;-73
2022/06/13 04:20:58;;;;;;;;;;;13.40;99.90;;;;;;4789412;30;19913;-72
2022/06/13 04:23:42;;;;;;;;;;;13.40;99.90;;;;;;4716229;30;19918;-73
2022/06/13 04:26:10;;;;;;;;;;;13.70;99.90;;;;;;4784409;30;19910;-73
2022/06/13 04:28:55;;;;;;;;;;;14.20;99.90;;;;;;4789088;30;19909;-73
2022/06/13 04:31:24;;;;;;;;;;;14.40;99.90;;;;;;4789401;30;19917;-73
2022/06/13 04:33:51;;;;;;;;;;;15.60;99.90;;;;;;4789996;30;19909;-73
2022/06/13 04:36:21;;;;;;;;;;;19.00;99.90;;;;;;4789716;30;20273;-73
2022/06/13 04:38:56;;;;;;;;;;;19.40;99.90;;;;;;4788285;29;19924;-73
2022/06/13 04:41:23;;;;;;;;;;;17.90;99.90;;;;;;4789186;30;19918;-73
2022/06/13 04:43:50;;;;;;;;;;;17.70;99.90;;;;;;4789134;30;20285;-73
2022/06/13 04:46:35;;;;;;;;;;;18.60;99.90;;;;;;4781707;30;20393;-73
2022/06/13 04:49:07;;;;;;;;;;;18.60;99.90;;;;;;4786850;30;19913;-73
2022/06/13 04:51:44;;;;;;;;;;;17.60;99.90;;;;;;4789665;30;20083;-73
2022/06/13 04:54:20;;;;;;;;;;;20.90;99.90;;;;;;4789058;30;20306;-73
2022/06/13 04:56:46;;;;;;;;;;;23.80;99.90;;;;;;4776947;30;20239;-73
2022/06/13 04:59:15;;;;;;;;;;;23.90;99.90;;;;;;4786623;30;19940;-73
2022/06/13 05:01:42;;;;;;;;;;;23.50;99.90;;;;;;4779436;30;20004;-73
2022/06/13 05:04:12;;;;;;;;;;;25.60;99.90;;;;;;4776482;30;19916;-73
2022/06/13 05:06:43;;;;;;;;;;;27.20;99.90;;;;;;4782002;30;20396;-73
2022/06/13 05:09:14;;;;;;;;;;;27.30;99.90;;;;;;4777692;30;19930;-73
2022/06/13 05:11:42;;;;;;;;;;;26.10;99.90;;;;;;4777914;30;19940;-73
2022/06/13 05:14:15;;;;;;;;;;;23.60;99.90;;;;;;4788860;30;19913;-73
2022/06/13 05:16:45;;;;;;;;;;;21.50;99.90;;;;;;4776822;30;19966;-74
2022/06/13 05:19:36;;;;;;;;;;;20.00;99.90;;;;;;4788806;30;19913;-73
2022/06/13 05:22:15;;;;;;;;;;;19.10;99.90;;;;;;4784346;30;19909;-73
2022/06/13 05:24:56;;;;;;;;;;;17.90;99.90;;;;;;4788693;30;19921;-73
2022/06/13 05:27:24;;;;;;;;;;;17.30;99.90;;;;;;4770879;30;20267;-73
2022/06/13 05:29:52;;;;;;;;;;;17.20;99.90;;;;;;4782465;30;19910;-73
2022/06/13 05:32:40;;;;;;;;;;;16.60;99.90;;;;;;4788731;30;19920;-73
2022/06/13 05:35:05;;;;;;;;;;;15.90;99.90;;;;;;4788249;30;20526;-73
2022/06/13 05:37:54;;;;;;;;;;;15.90;99.90;;;;;;4780435;30;20410;-73
2022/06/13 05:40:24;;;;;;;;;;;16.00;99.90;;;;;;4784575;30;19959;-73
2022/06/13 05:42:55;;;;;;;;;;;16.10;99.90;;;;;;4784525;30;19909;-73
2022/06/13 05:45:25;;;;;;;;;;;16.10;99.90;;;;;;4770554;30;20440;-73
2022/06/13 05:47:53;;;;;;;;;;;18.60;99.90;;;;;;4770648;30;19941;-73
2022/06/13 05:50:24;;;;;;;;;;;24.20;99.90;;;;;;4770161;30;19910;-73
2022/06/13 05:52:49;;;;;;;;;;;26.90;99.90;;;;;;4774477;30;19909;-73
2022/06/13 05:55:15;;;;;;;;;;;22.70;99.90;;;;;;4769540;30;19926;-73
2022/06/13 05:57:49;;;;;;;;;;;21.90;99.90;;;;;;4770394;30;19926;-73
2022/06/13 06:00:19;;;;;;;;;;;22.90;99.90;;;;;;4770517;30;19971;-73
2022/06/13 06:02:47;;;;;;;;;;;25.70;99.90;;;;;;4785317;30;20416;-73
2022/06/13 06:05:13;;;;;;;;;;;26.80;99.90;;;;;;4784237;30;19953;-73
2022/06/13 06:07:41;;;;;;;;;;;28.10;99.90;;;;;;4787969;30;19970;-73
2022/06/13 06:10:23;;;;;;;;;;;29.40;99.90;;;;;;4771704;30;20435;-73
2022/06/13 06:12:51;;;;;;;;;;;29.60;99.90;;;;;;4787953;30;19920;-73
2022/06/13 06:15:25;;;;;;;;;;;30.90;99.90;;;;;;4784071;30;19916;-73
2022/06/13 06:17:51;;;;;;;;;;;29.50;99.90;;;;;;4788012;30;19922;-73
2022/06/13 06:20:18;;;;;;;;;;;26.30;99.90;;;;;;4787751;30;20282;-73
2022/06/13 06:22:44;;;;;;;;;;;27.70;99.90;;;;;;4787835;30;19913;-73
2022/06/13 06:25:12;;;;;;;;;;;25.00;99.90;;;;;;4787799;30;19920;-73
2022/06/13 06:27:41;;;;;;;;;;;24.70;99.90;;;;;;4787761;30;19909;-73
2022/06/13 06:30:27;;;;;;;;;;;27.40;99.90;;;;;;4787355;30;19948;-73
2022/06/13 06:32:56;;;;;;;;;;;28.90;99.90;;;;;;4787156;30;19923;-73
2022/06/13 06:35:29;;;;;;;;;;;25.20;99.90;;;;;;4786072;30;19909;-73
2022/06/13 06:37:59;;;;;;;;;;;24.10;99.90;;;;;;4770280;30;19925;-73
2022/06/13 06:40:33;;;;;;;;;;;21.80;99.90;;;;;;4779438;30;19920;-73
2022/06/13 06:42:59;;;;;;;;;;;24.90;99.90;;;;;;4787533;30;19967;-73
2022/06/13 06:45:25;;;;;;;;;;;22.90;99.90;;;;;;4786136;30;19914;-73
2022/06/13 06:47:51;;;;;;;;;;;27.10;99.90;;;;;;4786962;30;20353;-73
2022/06/13 06:50:17;;;;;;;;;;;31.30;99.90;;;;;;4786784;30;19921;-73
2022/06/13 06:52:52;;;;;;;;;;;31.70;99.90;;;;;;4786792;30;19916;-73
2022/06/13 07:01:00;;;;;;;;;;;34.80;99.90;;;;;;4760301;29;19910;-73
2022/06/13 07:03:32;;;;;;;;;;;34.80;99.90;;;;;;4789590;30;19913;-73
2022/06/13 07:06:07;;;;;;;;;;;32.80;99.90;;;;;;4796657;29;20328;-73
2022/06/13 07:08:36;;;;;;;;;;;29.00;99.90;;;;;;4790707;30;20058;-73
2022/06/13 07:14:01;;;;;;;;;;;31.00;99.90;;;;;;4787948;30;19917;-74
2022/06/13 07:16:30;;;;;;;;;;;30.80;99.90;;;;;;4790116;30;20032;-73
2022/06/13 07:18:58;;;;;;;;;;;25.60;99.90;;;;;;4790124;30;19917;-73
2022/06/13 07:21:27;;;;;;;;;;;24.40;99.90;;;;;;4769710;30;19913;-73
2022/06/13 07:23:58;;;;;;;;;;;24.90;99.90;;;;;;4790123;30;20308;-74
2022/06/13 07:26:27;;;;;;;;;;;22.90;99.90;;;;;;4789906;30;19916;-74
2022/06/13 07:28:55;;;;;;;;;;;29.30;99.90;;;;;;4789853;30;19918;-73
2022/06/13 07:31:22;;;;;;;;;;;26.90;99.90;;;;;;4787647;30;19920;-74
2022/06/13 07:33:54;;;;;;;;;;;24.20;99.90;;;;;;4789221;30;19916;-73
2022/06/13 07:36:19;;;;;;;;;;;22.50;99.90;;;;;;4779139;30;19920;-74
2022/06/13 07:38:47;;;;;;;;;;;21.70;99.90;;;;;;4790088;30;20234;-73
2022/06/13 07:41:24;;;;;;;;;;;22.20;99.90;;;;;;4789941;30;20436;-73
2022/06/13 07:43:54;;;;;;;;;;;21.30;99.90;;;;;;4788316;30;19939;-73
2022/06/13 07:46:24;;;;;;;;;;;28.70;99.90;;;;;;4789778;30;20331;-73
2022/06/13 07:48:50;;;;;;;;;;;25.50;99.90;;;;;;4786207;30;19914;-73
2022/06/13 07:51:15;;;;;;;;;;;26.00;99.90;;;;;;4787824;30;19916;-73
2022/06/13 07:53:41;;;;;;;;;;;27.20;99.90;;;;;;4789483;30;19970;-73
2022/06/13 07:56:07;;;;;;;;;;;23.70;99.90;;;;;;4789151;30;19960;-74
2022/06/13 07:58:39;;;;;;;;;;;28.40;99.90;;;;;;4789433;30;20406;-73
2022/06/13 08:01:08;;;;;;;;;;;27.80;99.90;;;;;;4789562;30;19917;-72
2022/06/13 08:03:56;;;;;;;;;;;26.80;99.90;;;;;;4789160;30;19909;-72
2022/06/13 08:06:26;;;;;;;;;;;32.40;99.90;;;;;;4775352;30;20332;-73
2022/06/13 08:08:57;;;;;;;;;;;27.20;99.90;;;;;;4771397;30;19988;-73
2022/06/13 08:11:37;;;;;;;;;;;24.60;99.90;;;;;;4785258;30;19959;-73
2022/06/13 08:14:06;;;;;;;;;;;23.00;99.90;;;;;;4781024;29;19910;-74
2022/06/13 08:16:34;;;;;;;;;;;22.50;99.90;;;;;;4785624;30;19916;-74
2022/06/13 08:19:03;;;;;;;;;;;22.50;99.90;;;;;;4789050;30;20358;-74
2022/06/13 08:21:29;;;;;;;;;;;25.10;99.90;;;;;;4802267;29;19962;-74
2022/06/13 08:24:01;;;;;;;;;;;27.60;99.90;;;;;;4807265;29;19909;-74
2022/06/13 08:26:32;;;;;;;;;;;23.90;99.90;;;;;;4797778;29;20003;-73
2022/06/13 08:28:57;;;;;;;;;;;28.10;99.90;;;;;;4789070;30;19909;-74
2022/06/13 08:31:26;;;;;;;;;;;30.30;99.90;;;;;;4788708;30;19921;-73
2022/06/13 08:34:04;;;;;;;;;;;30.80;99.90;;;;;;4788793;30;19949;-73
2022/06/13 08:36:38;;;;;;;;;;;29.40;99.90;;;;;;4789058;30;19963;-73
2022/06/13 08:39:12;;;;;;;;;;;31.50;99.90;;;;;;4788766;30;19944;-74
2022/06/13 08:42:07;;;;;;;;;;;27.70;99.90;;;;;;4789079;30;19910;-73
2022/06/13 08:44:52;;;;;;;;;;;28.60;99.90;;;;;;4766711;30;19909;-73
2022/06/13 08:47:20;;;;;;;;;;;27.20;99.90;;;;;;4773238;30;20291;-73
2022/06/13 08:50:04;;;;;;;;;;;24.30;99.90;;;;;;4788719;30;19966;-73
2022/06/13 08:52:37;;;;;;;;;;;23.80;99.90;;;;;;4788766;30;19921;-73
2022/06/13 08:55:19;;;;;;;;;;;23.40;99.90;;;;;;4788115;30;19921;-74
2022/06/13 08:57:49;;;;;;;;;;;25.40;99.90;;;;;;4788802;30;20569;-73
2022/06/13 09:00:17;;;;;;;;;;;26.10;99.90;;;;;;4788475;30;19970;-73
2022/06/13 09:03:15;;;;;;;;;;;24.80;99.90;;;;;;4788586;30;20378;-73
2022/06/13 09:06:01;;;;;;;;;;;30.10;99.90;;;;;;4744317;30;19913;-74
2022/06/13 09:09:08;;;;;;;;;;;32.10;99.90;;;;;;4788354;30;19909;-73
2022/06/13 09:11:45;;;;;;;;;;;32.60;99.90;;;;;;4729848;30;20280;-73
2022/06/13 09:14:16;;;;;;;;;;;28.40;99.90;;;;;;4787976;30;19986;-73
2022/06/13 09:16:55;;;;;;;;;;;25.40;99.90;;;;;;4770316;30;19914;-73
2022/06/13 09:19:31;;;;;;;;;;;23.90;99.90;;;;;;4783674;30;20026;-74
2022/06/13 09:22:03;;;;;;;;;;;26.30;99.90;;;;;;4788185;30;20004;-73
2022/06/13 09:24:47;;;;;;;;;;;29.30;99.90;;;;;;4787417;29;19917;-73
2022/06/13 09:27:33;;;;;;;;;;;28.50;99.90;;;;;;4787955;30;20577;-74
2022/06/13 09:30:31;;;;;;;;;;;29.70;99.90;;;;;;4788078;30;19952;-74
2022/06/13 09:33:02;;;;;;;;;;;33.10;99.90;;;;;;4782231;30;20325;-73
2022/06/13 09:35:38;;;;;;;;;;;31.50;99.90;;;;;;4770087;30;19914;-74
2022/06/13 09:38:08;;;;;;;;;;;27.30;99.90;;;;;;4770020;30;19940;-74
2022/06/13 09:40:58;;;;;;;;;;;25.30;99.90;;;;;;4778414;30;19910;-74
2022/06/13 09:43:46;;;;;;;;;;;25.10;99.90;;;;;;4778257;30;19949;-74
2022/06/13 09:46:25;;;;;;;;;;;23.50;99.90;;;;;;4770164;30;20247;-74
2022/06/13 09:49:28;;;;;;;;;;;22.20;99.90;;;;;;4777940;30;19919;-74
2022/06/13 09:51:54;;;;;;;;;;;22.30;99.90;;;;;;4760137;30;20016;-73
2022/06/13 09:54:31;;;;;;;;;;;23.40;99.90;;;;;;4769933;30;20004;-74
2022/06/13 09:57:06;;;;;;;;;;;23.20;99.90;;;;;;4774767;30;19922;-74
2022/06/13 09:59:35;;;;;;;;;;;25.60;99.90;;;;;;4787799;30;19963;-73
2022/06/13 10:02:15;;;;;;;;;;;25.60;99.90;;;;;;4787582;29;19916;-74
2022/06/13 10:04:59;;;;;;;;;;;23.40;99.90;;;;;;4787214;30;20008;-74
2022/06/13 10:07:42;;;;;;;;;;;23.00;99.90;;;;;;4787490;30;19909;-74
2022/06/13 10:10:23;;;;;;;;;;;27.50;99.90;;;;;;4787351;30;19909;-74
2022/06/13 10:12:51;;;;;;;;;;;24.00;99.90;;;;;;4787916;30;20564;-73
2022/06/13 10:15:37;;;;;;;;;;;22.50;99.90;;;;;;4787361;30;19909;-74
2022/06/13 10:18:12;;;;;;;;;;;22.60;99.90;;;;;;4785150;30;20321;-74
2022/06/13 10:20:59;;;;;;;;;;;24.10;99.90;;;;;;4775868;30;20500;-73
2022/06/13 10:23:30;;;;;;;;;;;28.70;99.90;;;;;;4787206;30;19909;-73
2022/06/13 10:26:28;;;;;;;;;;;31.10;99.90;;;;;;4787205;30;19917;-74
2022/06/13 10:28:57;;;;;;;;;;;30.80;99.90;;;;;;4770322;30;20355;-74
2022/06/13 10:31:44;;;;;;;;;;;25.80;99.90;;;;;;4785481;30;19909;-74
2022/06/13 10:34:09;;;;;;;;;;;25.30;99.90;;;;;;4785886;30;19913;-73
2022/06/13 10:36:39;;;;;;;;;;;25.50;99.90;;;;;;4786165;30;19916;-74
2022/06/13 10:39:13;;;;;;;;;;;23.30;99.90;;;;;;4786958;30;19913;-74
2022/06/13 10:41:41;;;;;;;;;;;22.20;99.90;;;;;;4787099;30;19970;-73
2022/06/13 10:44:09;;;;;;;;;;;26.00;99.90;;;;;;4786805;30;19917;-74
2022/06/13 10:46:34;;;;;;;;;;;23.10;99.90;;;;;;4786802;30;20375;-74
2022/06/13 10:49:00;;;;;;;;;;;23.20;99.90;;;;;;4786432;30;19910;-74
2022/06/13 10:51:26;;;;;;;;;;;24.80;99.90;;;;;;4786615;30;19917;-74
2022/06/13 10:53:52;;;;;;;;;;;22.70;99.90;;;;;;4786928;30;19917;-74
2022/06/13 10:56:29;;;;;;;;;;;27.50;99.90;;;;;;4786324;30;20341;-74
2022/06/13 10:59:00;;;;;;;;;;;29.10;99.90;;;;;;4786749;30;20259;-74
2022/06/13 11:01:38;;;;;;;;;;;28.30;99.90;;;;;;4786761;30;19924;-74
2022/06/13 11:04:18;;;;;;;;;;;28.30;99.90;;;;;;4786860;30;20353;-73
2022/06/13 11:06:48;;;;;;;;;;;27.80;99.90;;;;;;4786564;30;19952;-73
2022/06/13 11:09:26;;;;;;;;;;;30.60;99.90;;;;;;4776449;30;19910;-74
2022/06/13 11:11:53;;;;;;;;;;;28.80;99.90;;;;;;4781442;30;19914;-74
2022/06/13 11:23:20;;;;;;;;;;;28.00;99.90;;;;;;4761553;30;19920;-74
2022/06/13 11:27:39;;;;;;;;;;;25.90;99.90;;;;;;4786615;30;20044;-74
2022/06/13 11:28:42;;;;;;;;;;;24.40;99.90;;;;;;4783953;30;19982;-74
2022/06/13 11:31:21;;;;;;;;;;;23.60;99.90;;;;;;4786088;30;20354;-73
2022/06/13 11:33:50;;;;;;;;;;;23.10;99.90;;;;;;4786677;30;20004;-74
2022/06/13 11:36:18;;;;;;;;;;;23.30;99.90;;;;;;4782707;30;19909;-73
2022/06/13 11:38:52;;;;;;;;;;;22.80;99.90;;;;;;4786441;30;19913;-75
2022/06/13 11:41:47;;;;;;;;;;;22.30;99.90;;;;;;4786065;30;19957;-73
2022/06/13 11:44:17;;;;;;;;;;;21.70;99.90;;;;;;4785837;30;20346;-74
2022/06/13 11:46:45;;;;;;;;;;;21.60;99.90;;;;;;4783075;30;19910;-74
2022/06/13 11:49:22;;;;;;;;;;;22.20;99.90;;;;;;4774374;30;19918;-74
2022/06/13 11:52:02;;;;;;;;;;;23.00;99.90;;;;;;4777633;30;19909;-73
2022/06/13 11:54:35;;;;;;;;;;;22.70;99.90;;;;;;4789639;30;20058;-74
2022/06/13 11:57:12;;;;;;;;;;;23.70;99.90;;;;;;4789277;30;20011;-74
2022/06/13 11:59:50;;;;;;;;;;;23.30;99.90;;;;;;4789436;30;19913;-73
2022/06/13 12:02:20;;;;;;;;;;;22.20;99.90;;;;;;4781699;30;19909;-74
2022/06/13 12:04:53;;;;;;;;;;;22.20;99.90;;;;;;4784854;30;20346;-74
2022/06/13 12:07:33;;;;;;;;;;;22.50;99.90;;;;;;4789296;30;20082;-73
2022/06/13 12:10:06;;;;;;;;;;;22.50;99.90;;;;;;4772891;30;19974;-74
2022/06/13 12:12:43;;;;;;;;;;;21.90;99.90;;;;;;4789251;30;20293;-75
2022/06/13 12:15:12;;;;;;;;;;;22.30;99.90;;;;;;4789250;30;19945;-75
2022/06/13 12:18:04;;;;;;;;;;;22.20;99.90;;;;;;4781477;30;20005;-74
2022/06/13 12:20:59;;;;;;;;;;;21.60;99.90;;;;;;4778914;30;20232;-74
2022/06/13 12:23:45;;;;;;;;;;;21.80;99.90;;;;;;4751461;30;19978;-74
2022/06/13 12:26:24;;;;;;;;;;;21.40;99.90;;;;;;4789048;30;20009;-75
2022/06/13 12:28:59;;;;;;;;;;;21.30;99.90;;;;;;4786674;30;19935;-73
2022/06/13 12:31:53;;;;;;;;;;;21.40;99.90;;;;;;4779686;30;19920;-74
2022/06/13 12:34:19;;;;;;;;;;;20.80;99.90;;;;;;4773049;30;19910;-73
2022/06/13 12:37:03;;;;;;;;;;;21.30;99.90;;;;;;4788776;30;19916;-74
2022/06/13 12:39:35;;;;;;;;;;;21.20;99.90;;;;;;4788393;30;19964;-74
2022/06/13 12:42:09;;;;;;;;;;;20.70;99.90;;;;;;4773431;30;19914;-74
2022/06/13 12:44:40;;;;;;;;;;;21.00;99.90;;;;;;4787458;30;19917;-74
2022/06/13 12:47:08;;;;;;;;;;;20.70;99.90;;;;;;4784002;30;20391;-74
2022/06/13 12:49:36;;;;;;;;;;;20.10;99.90;;;;;;4782709;30;20427;-74
2022/06/13 12:52:11;;;;;;;;;;;20.30;99.90;;;;;;4788669;30;19999;-74
2022/06/13 12:54:48;;;;;;;;;;;20.80;99.90;;;;;;4788411;30;19939;-74
2022/06/13 12:57:37;;;;;;;;;;;21.10;99.90;;;;;;4788608;30;19922;-73
2022/06/13 13:00:29;;;;;;;;;;;21.60;99.90;;;;;;4777842;29;19963;-74
2022/06/13 13:03:01;;;;;;;;;;;21.60;99.90;;;;;;4779513;30;19921;-74
2022/06/13 13:05:40;;;;;;;;;;;20.80;99.90;;;;;;4785350;30;19909;-73
2022/06/13 13:08:11;;;;;;;;;;;21.40;99.90;;;;;;4782853;30;19920;-74
2022/06/13 13:10:58;;;;;;;;;;;20.50;99.90;;;;;;4788298;30;20362;-74
2022/06/13 13:13:43;;;;;;;;;;;20.30;99.90;;;;;;4788306;30;19910;-74
2022/06/13 13:16:38;;;;;;;;;;;20.30;99.90;;;;;;4770476;30;19933;-74
2022/06/13 13:19:18;;;;;;;;;;;20.70;99.90;;;;;;4772268;30;19914;-74
2022/06/13 13:22:05;;;;;;;;;;;20.90;99.90;;;;;;4788379;30;20373;-73
2022/06/13 13:24:49;;;;;;;;;;;20.80;99.90;;;;;;4787737;30;19921;-74
2022/06/13 13:27:21;;;;;;;;;;;20.50;99.90;;;;;;4788122;30;19917;-74
2022/06/13 13:29:54;;;;;;;;;;;20.10;99.90;;;;;;4775982;30;20000;-73
2022/06/13 13:32:44;;;;;;;;;;;20.60;99.90;;;;;;4787890;30;19916;-73
2022/06/13 13:35:19;;;;;;;;;;;21.00;99.90;;;;;;4777234;30;19940;-74
2022/06/13 13:37:56;;;;;;;;;;;21.00;99.90;;;;;;4786515;30;19921;-74
2022/06/13 13:40:42;;;;;;;;;;;21.20;99.90;;;;;;4788158;30;20639;-73
2022/06/13 13:43:29;;;;;;;;;;;20.90;99.90;;;;;;4772101;30;20004;-74
2022/06/13 13:46:16;;;;;;;;;;;21.40;99.90;;;;;;4786846;30;19913;-74
2022/06/13 13:48:51;;;;;;;;;;;21.20;99.90;;;;;;4779368;30;19917;-73
2022/06/13 13:51:18;;;;;;;;;;;21.00;99.90;;;;;;4769909;30;19910;-73
2022/06/13 13:53:50;;;;;;;;;;;20.70;99.90;;;;;;4775219;30;19916;-73
2022/06/13 13:56:37;;;;;;;;;;;21.20;99.90;;;;;;4787486;30;19967;-74
2022/06/13 13:59:09;;;;;;;;;;;21.30;99.90;;;;;;4779895;30;19990;-73
2022/06/13 14:01:37;;;;;;;;;;;21.80;99.90;;;;;;4787269;30;20329;-73
2022/06/13 14:04:35;;;;;;;;;;;22.10;99.90;;;;;;4775696;30;19910;-73
2022/06/13 14:07:13;;;;;;;;;;;22.10;99.90;;;;;;4747360;30;19909;-73
2022/06/13 14:09:44;;;;;;;;;;;22.40;99.90;;;;;;4787440;30;19972;-73
2022/06/13 14:12:13;;;;;;;;;;;22.00;99.90;;;;;;4785129;29;19941;-74
2022/06/13 14:14:57;;;;;;;;;;;21.80;99.90;;;;;;4787427;30;20005;-73
2022/06/13 14:17:27;;;;;;;;;;;22.70;99.90;;;;;;4782342;30;19971;-73
2022/06/13 14:20:16;;;;;;;;;;;22.70;99.90;;;;;;4785141;30;19921;-73
2022/06/13 14:22:48;;;;;;;;;;;22.80;99.90;;;;;;4764352;30;19914;-73
2022/06/13 14:25:38;;;;;;;;;;;22.70;99.90;;;;;;4769375;30;19917;-74
2022/06/13 14:28:17;;;;;;;;;;;23.00;99.90;;;;;;4769668;30;20458;-74
2022/06/13 14:31:04;;;;;;;;;;;22.70;99.90;;;;;;4769192;30;19910;-73
2022/06/13 14:37:12;;;;;;;;;;;22.10;99.90;;;;;;4779449;30;20400;-74
2022/06/13 14:39:40;;;;;;;;;;;21.80;99.90;;;;;;4786217;30;19921;-74
2022/06/13 14:42:21;;;;;;;;;;;22.00;99.90;;;;;;4786926;30;19913;-74
2022/06/13 14:45:05;;;;;;;;;;;21.80;99.90;;;;;;4769390;30;19910;-74
2022/06/13 14:47:52;;;;;;;;;;;21.70;99.90;;;;;;4769245;30;19996;-74
2022/06/13 14:50:39;;;;;;;;;;;22.20;99.90;;;;;;4786098;30;19909;-74
2022/06/13 14:53:36;;;;;;;;;;;21.70;99.90;;;;;;4785945;30;19921;-74
2022/06/13 14:56:07;;;;;;;;;;;21.90;99.90;;;;;;4786897;30;19922;-74
2022/06/13 14:58:56;;;;;;;;;;;21.00;99.90;;;;;;4786713;30;19946;-74
2022/06/13 15:01:30;;;;;;;;;;;20.80;99.90;;;;;;4764511;30;19914;-74
2022/06/13 15:03:59;;;;;;;;;;;20.90;99.90;;;;;;4787403;30;19913;-74
2022/06/13 15:06:29;;;;;;;;;;;21.50;99.90;;;;;;4786787;30;19916;-74
2022/06/13 15:09:13;;;;;;;;;;;21.90;99.90;;;;;;4785940;30;20450;-74
2022/06/13 15:11:56;;;;;;;;;;;21.70;99.90;;;;;;4782833;30;19910;-74
2022/06/13 15:14:27;;;;;;;;;;;21.70;99.90;;;;;;4786211;30;20004;-74
2022/06/13 15:16:53;;;;;;;;;;;21.80;99.90;;;;;;4779741;30;19920;-74
2022/06/13 15:19:49;;;;;;;;;;;21.70;99.90;;;;;;4786778;30;20010;-75
2022/06/13 15:22:29;;;;;;;;;;;21.20;99.90;;;;;;4787188;29;20534;-75
2022/06/13 15:25:09;;;;;;;;;;;20.90;99.90;;;;;;4790829;30;19962;-74
2022/06/13 15:27:54;;;;;;;;;;;20.70;99.90;;;;;;4791349;30;20278;-75